createdAt,value
2022-10-09T00:01:28.113Z,15.15
2022-10-09T00:03:56.963Z,14.52
2022-10-09T00:06:29.652Z,14.06
2022-10-09T00:08:59.237Z,14.00
2022-10-09T00:11:28.921Z,15.05
2022-10-09T00:13:57.540Z,15.98
2022-10-09T00:16:26.371Z,16.37
2022-10-09T00:18:54.377Z,15.72
2022-10-09T00:21:22.187Z,14.88
2022-10-09T00:23:52.198Z,14.23
2022-10-09T00:26:20.788Z,13.72
2022-10-09T00:28:49.441Z,13.61
2022-10-09T00:31:18.177Z,14.71
2022-10-09T00:33:46.445Z,15.78
2022-10-09T00:36:19.397Z,16.22
2022-10-09T00:38:47.743Z,15.51
2022-10-09T00:41:22.890Z,14.73
2022-10-09T00:43:59.916Z,14.10
2022-10-09T00:46:35.116Z,13.62
2022-10-09T00:49:28.221Z,13.56
2022-10-09T00:51:59.780Z,14.89
2022-10-09T00:54:29.666Z,15.63
2022-10-09T00:56:58.616Z,15.27
2022-10-09T00:59:27.672Z,14.50
2022-10-09T01:01:55.733Z,13.85
2022-10-09T01:04:26.511Z,13.37
2022-10-09T01:07:06.407Z,13.25
2022-10-09T01:09:43.286Z,14.40
2022-10-09T01:12:30.888Z,15.48
2022-10-09T01:15:21.475Z,15.91
2022-10-09T01:17:59.240Z,15.05
2022-10-09T01:20:50.561Z,14.24
2022-10-09T01:23:50.920Z,13.58
2022-10-09T01:26:46.539Z,13.06
2022-10-09T01:29:16.075Z,13.13
2022-10-09T01:31:45.491Z,14.40
2022-10-09T01:34:15.035Z,15.45
2022-10-09T01:36:43.634Z,15.58
2022-10-09T01:39:16.423Z,14.84
2022-10-09T01:41:46.545Z,14.05
2022-10-09T01:44:25.852Z,13.47
2022-10-09T01:46:53.847Z,13.01
2022-10-09T01:49:32.379Z,13.01
2022-10-09T01:52:08.565Z,14.20
2022-10-09T01:54:55.610Z,15.22
2022-10-09T01:57:35.685Z,15.51
2022-10-09T02:00:07.844Z,14.72
2022-10-09T02:02:42.218Z,13.96
2022-10-09T02:05:15.676Z,13.44
2022-10-09T02:07:43.837Z,13.03
2022-10-09T02:10:15.540Z,12.97
2022-10-09T02:12:47.919Z,14.01
2022-10-09T02:15:17.119Z,14.95
2022-10-09T02:17:48.995Z,15.31
2022-10-09T02:20:25.641Z,14.62
2022-10-09T02:22:54.913Z,13.72
2022-10-09T02:25:22.839Z,13.08
2022-10-09T02:27:50.824Z,12.61
2022-10-09T02:30:20.761Z,12.54
2022-10-09T02:37:09.294Z,15.06
2022-10-09T02:39:37.316Z,15.38
2022-10-09T02:42:05.256Z,14.75
2022-10-09T02:44:33.895Z,14.00
2022-10-09T02:47:02.509Z,13.44
2022-10-09T02:49:30.919Z,12.98
2022-10-09T02:51:58.726Z,12.58
2022-10-09T02:54:26.768Z,12.24
2022-10-09T02:56:54.547Z,12.25
2022-10-09T02:59:22.303Z,13.44
2022-10-09T03:01:50.440Z,14.64
2022-10-09T03:04:19.428Z,15.16
2022-10-09T03:06:51.860Z,14.51
2022-10-09T03:09:19.624Z,13.72
2022-10-09T03:11:47.779Z,13.15
2022-10-09T03:14:17.355Z,12.72
2022-10-09T03:16:45.651Z,12.40
2022-10-09T03:19:13.552Z,12.39
2022-10-09T03:21:41.539Z,13.52
2022-10-09T03:24:09.835Z,14.76
2022-10-09T03:26:37.817Z,15.37
2022-10-09T03:29:05.612Z,14.72
2022-10-09T03:31:50.477Z,13.88
2022-10-09T03:34:22.509Z,13.18
2022-10-09T03:36:50.371Z,12.71
2022-10-09T03:39:18.323Z,12.39
2022-10-09T03:41:46.191Z,12.13
2022-10-09T03:44:14.399Z,12.17
2022-10-09T03:46:43.709Z,13.40
2022-10-09T03:49:11.517Z,14.74
2022-10-09T03:51:39.335Z,15.27
2022-10-09T03:54:07.142Z,14.59
2022-10-09T03:56:35.158Z,13.83
2022-10-09T03:59:05.558Z,13.27
2022-10-09T04:01:33.475Z,12.83
2022-10-09T04:04:01.308Z,12.47
2022-10-09T04:06:29.170Z,12.15
2022-10-09T04:08:57.381Z,11.88
2022-10-09T04:11:25.230Z,11.67
2022-10-09T04:13:53.123Z,12.33
2022-10-09T04:16:20.976Z,13.70
2022-10-09T04:18:48.796Z,14.57
2022-10-09T04:21:16.786Z,14.11
2022-10-09T04:23:44.877Z,13.37
2022-10-09T04:26:13.004Z,12.79
2022-10-09T04:28:40.905Z,12.39
2022-10-09T04:31:09.182Z,12.06
2022-10-09T04:33:38.054Z,11.77
2022-10-09T04:36:06.126Z,11.79
2022-10-09T04:38:34.337Z,12.92
2022-10-09T04:41:04.875Z,14.06
2022-10-09T04:43:34.308Z,14.56
2022-10-09T04:46:07.892Z,13.91
2022-10-09T04:48:42.761Z,13.16
2022-10-09T04:51:11.627Z,12.59
2022-10-09T04:53:39.934Z,12.16
2022-10-09T04:56:10.765Z,11.80
2022-10-09T04:58:40.691Z,11.49
2022-10-09T05:01:25.079Z,11.58
2022-10-09T05:03:54.384Z,13.11
2022-10-09T05:06:23.328Z,14.31
2022-10-09T05:08:52.009Z,14.57
2022-10-09T05:11:25.489Z,13.85
2022-10-09T05:13:57.063Z,13.15
2022-10-09T05:16:27.621Z,12.63
2022-10-09T05:18:58.925Z,12.24
2022-10-09T05:21:27.977Z,11.92
2022-10-09T05:23:58.193Z,11.65
2022-10-09T05:26:27.517Z,11.43
2022-10-09T05:28:56.570Z,11.23
2022-10-09T05:31:26.952Z,11.33
2022-10-09T05:33:56.182Z,12.62
2022-10-09T05:36:24.163Z,13.88
2022-10-09T05:38:52.734Z,14.29
2022-10-09T05:41:21.437Z,13.66
2022-10-09T05:43:50.396Z,13.02
2022-10-09T05:46:23.979Z,12.55
2022-10-09T05:48:57.649Z,12.19
2022-10-09T05:51:29.579Z,11.93
2022-10-09T05:53:57.867Z,11.72
2022-10-09T05:56:27.889Z,11.53
2022-10-09T05:59:00.987Z,11.38
2022-10-09T06:01:34.497Z,11.26
2022-10-09T06:04:03.425Z,11.17
2022-10-09T06:06:33.070Z,11.34
2022-10-09T06:09:04.361Z,12.75
2022-10-09T06:11:34.889Z,14.11
2022-10-09T06:14:04.726Z,14.76
2022-10-09T06:16:36.065Z,14.24
2022-10-09T06:19:06.784Z,13.64
2022-10-09T06:21:35.526Z,13.21
2022-10-09T06:24:04.556Z,12.92
2022-10-09T06:26:36.623Z,12.70
2022-10-09T06:29:04.877Z,12.51
2022-10-09T06:31:34.046Z,12.31
2022-10-09T06:34:03.319Z,12.39
2022-10-09T06:36:33.887Z,13.51
2022-10-09T06:39:05.944Z,14.67
2022-10-09T06:41:34.843Z,15.26
2022-10-09T06:44:16.709Z,14.67
2022-10-09T06:46:46.046Z,14.03
2022-10-09T06:49:13.892Z,13.59
2022-10-09T06:51:41.755Z,13.34
2022-10-09T06:54:12.893Z,13.15
2022-10-09T06:56:40.791Z,13.22
2022-10-09T06:59:09.723Z,14.35
2022-10-09T07:01:37.642Z,15.41
2022-10-09T07:04:10.735Z,15.88
2022-10-09T07:06:41.095Z,15.38
2022-10-09T07:09:12.026Z,14.80
2022-10-09T07:11:43.303Z,14.43
2022-10-09T07:14:12.527Z,14.18
2022-10-09T07:16:42.517Z,14.01
2022-10-09T07:19:11.966Z,13.89
2022-10-09T07:21:41.782Z,13.77
2022-10-09T07:24:10.346Z,13.65
2022-10-09T07:26:41.185Z,13.58
2022-10-09T07:29:10.669Z,13.54
2022-10-09T07:31:38.596Z,14.00
2022-10-09T07:34:06.779Z,15.32
2022-10-09T07:36:34.665Z,16.16
2022-10-09T07:39:02.886Z,15.81
2022-10-09T07:41:31.132Z,15.30
2022-10-09T07:43:59.047Z,14.90
2022-10-09T07:46:32.968Z,14.59
2022-10-09T07:49:02.946Z,14.35
2022-10-09T07:51:31.452Z,14.21
2022-10-09T07:54:01.835Z,14.15
2022-10-09T07:56:32.365Z,14.16
2022-10-09T07:59:02.552Z,14.28
2022-10-09T08:01:31.847Z,15.24
2022-10-09T08:04:02.249Z,16.54
2022-10-09T08:06:34.986Z,16.81
2022-10-09T08:09:06.070Z,16.31
2022-10-09T08:11:34.770Z,15.83
2022-10-09T08:14:02.620Z,15.47
2022-10-09T08:16:32.103Z,15.22
2022-10-09T08:19:02.302Z,15.02
2022-10-09T08:21:30.524Z,14.91
2022-10-09T08:23:59.836Z,14.82
2022-10-09T08:26:30.145Z,14.73
2022-10-09T08:29:00.810Z,14.71
2022-10-09T08:31:29.260Z,14.76
2022-10-09T08:33:58.809Z,15.20
2022-10-09T08:36:27.594Z,16.64
2022-10-09T08:38:56.200Z,17.34
2022-10-09T08:41:33.908Z,17.12
2022-10-09T08:44:18.825Z,16.89
2022-10-09T08:46:52.015Z,16.78
2022-10-09T08:49:35.028Z,16.74
2022-10-09T08:52:35.413Z,16.68
2022-10-09T08:55:11.940Z,16.76
2022-10-09T08:57:40.016Z,16.84
2022-10-09T09:00:30.939Z,16.89
2022-10-09T09:03:20.964Z,17.08
2022-10-09T09:05:58.348Z,17.21
2022-10-09T09:08:44.662Z,17.25
2022-10-09T09:11:34.346Z,17.24
2022-10-09T09:14:19.484Z,17.27
2022-10-09T09:16:59.152Z,17.39
2022-10-09T09:19:35.778Z,17.58
2022-10-09T09:22:04.192Z,17.83
2022-10-09T09:24:42.249Z,18.02
2022-10-09T09:27:16.331Z,18.15
2022-10-09T09:29:48.856Z,18.25
2022-10-09T09:32:20.971Z,18.25
2022-10-09T09:34:50.946Z,18.33
2022-10-09T09:37:18.919Z,18.35
2022-10-09T09:42:34.730Z,18.01
2022-10-09T09:45:06.636Z,17.84
2022-10-09T09:47:48.257Z,17.99
2022-10-09T09:50:45.673Z,18.16
2022-10-09T09:53:27.307Z,18.37
2022-10-09T09:55:56.494Z,18.62
2022-10-09T09:58:33.046Z,18.84
2022-10-09T10:01:03.327Z,19.04
2022-10-09T10:03:35.286Z,19.33
2022-10-09T10:06:03.610Z,19.60
2022-10-09T10:08:33.964Z,19.74
2022-10-09T10:11:07.755Z,19.81
2022-10-09T10:13:49.096Z,19.97
2022-10-09T10:16:28.070Z,20.19
2022-10-09T10:19:00.326Z,20.32
2022-10-09T10:21:43.184Z,20.28
2022-10-09T10:24:16.588Z,20.32
2022-10-09T10:27:01.270Z,20.43
2022-10-09T10:29:41.653Z,20.64
2022-10-09T10:32:34.584Z,20.77
2022-10-09T10:35:08.444Z,21.00
2022-10-09T10:38:13.299Z,21.26
2022-10-09T10:40:49.246Z,21.54
2022-10-09T10:43:36.123Z,21.77
2022-10-09T10:46:19.259Z,22.01
2022-10-09T10:48:48.051Z,22.18
2022-10-09T10:51:27.818Z,22.36
2022-10-09T10:54:20.302Z,22.47
2022-10-09T10:57:14.969Z,22.31
2022-10-09T11:00:05.691Z,21.99
2022-10-09T11:02:58.982Z,21.81
2022-10-09T11:05:45.770Z,21.90
2022-10-09T11:08:41.717Z,21.95
2022-10-09T11:11:19.153Z,21.67
2022-10-09T11:14:00.889Z,21.27
2022-10-09T11:16:40.073Z,20.93
2022-10-09T11:19:27.112Z,20.61
2022-10-09T11:22:07.670Z,20.31
2022-10-09T11:24:58.959Z,20.35
2022-10-09T11:28:32.734Z,20.71
2022-10-09T11:31:13.831Z,21.10
2022-10-09T11:33:43.772Z,21.28
2022-10-09T11:36:24.826Z,21.48
2022-10-09T11:38:59.569Z,21.70
2022-10-09T11:41:27.889Z,21.91
2022-10-09T11:44:16.643Z,22.15
2022-10-09T11:46:59.225Z,22.25
2022-10-09T11:50:07.270Z,22.34
2022-10-09T11:53:02.273Z,22.57
2022-10-09T11:55:32.315Z,22.80
2022-10-09T11:58:26.038Z,23.01
2022-10-09T12:00:56.346Z,23.22
2022-10-09T12:03:34.156Z,23.43
2022-10-09T12:06:13.705Z,23.55
2022-10-09T12:08:54.895Z,23.64
2022-10-09T12:11:25.578Z,23.75
2022-10-09T12:14:25.622Z,23.86
2022-10-09T12:21:47.761Z,23.70
2022-10-09T12:24:18.903Z,23.35
2022-10-09T12:26:48.428Z,23.17
2022-10-09T12:30:00.962Z,23.03
2022-10-09T12:32:40.795Z,23.09
2022-10-09T12:35:33.298Z,23.18
2022-10-09T12:38:01.476Z,23.10
2022-10-09T12:40:32.538Z,22.93
2022-10-09T12:43:10.198Z,22.60
2022-10-09T12:45:49.232Z,22.28
2022-10-09T12:48:23.401Z,22.12
2022-10-09T12:50:52.791Z,22.24
2022-10-09T12:53:23.496Z,22.47
2022-10-09T12:56:00.646Z,22.77
2022-10-09T12:58:33.658Z,23.11
2022-10-09T13:01:08.027Z,23.44
2022-10-09T13:03:40.916Z,23.78
2022-10-09T13:06:24.049Z,24.04
2022-10-09T13:09:03.620Z,24.28
2022-10-09T13:11:40.356Z,24.56
2022-10-09T13:14:27.046Z,24.84
2022-10-09T13:16:57.534Z,24.93
2022-10-09T13:19:31.966Z,24.72
2022-10-09T13:22:29.053Z,24.32
2022-10-09T13:24:59.027Z,24.20
2022-10-09T13:27:32.880Z,24.42
2022-10-09T13:30:01.481Z,24.69
2022-10-09T13:32:29.345Z,24.85
2022-10-09T13:34:58.140Z,25.05
2022-10-09T13:37:26.942Z,24.88
2022-10-09T13:39:56.956Z,24.52
2022-10-09T13:42:31.260Z,24.10
2022-10-09T13:44:58.984Z,23.92
2022-10-09T13:47:26.863Z,24.29
2022-10-09T13:49:55.556Z,24.98
2022-10-09T13:52:23.319Z,25.81
2022-10-09T13:54:51.111Z,26.64
2022-10-09T13:57:18.968Z,27.47
2022-10-09T13:59:46.787Z,28.21
2022-10-09T14:02:14.647Z,28.92
2022-10-09T14:04:42.709Z,29.65
2022-10-09T14:07:10.545Z,30.22
2022-10-09T14:09:38.461Z,30.65
2022-10-09T14:12:06.231Z,31.04
2022-10-09T14:14:34.056Z,31.59
2022-10-09T14:17:01.797Z,32.21
2022-10-09T14:19:29.663Z,32.82
2022-10-09T14:21:58.045Z,33.27
2022-10-09T14:24:27.147Z,33.59
2022-10-09T14:26:54.956Z,33.92
2022-10-09T14:29:22.753Z,34.30
2022-10-09T14:31:51.451Z,34.55
2022-10-09T14:34:19.463Z,34.91
2022-10-09T14:36:47.272Z,35.48
2022-10-09T14:39:15.671Z,35.98
2022-10-09T14:41:43.419Z,36.28
2022-10-09T14:44:11.458Z,36.44
2022-10-09T14:46:39.407Z,36.54
2022-10-09T14:49:08.355Z,36.67
2022-10-09T14:51:38.202Z,36.81
2022-10-09T14:54:06.960Z,36.95
2022-10-09T14:56:35.615Z,37.10
2022-10-09T14:59:05.895Z,37.38
2022-10-09T15:01:34.172Z,37.59
2022-10-09T15:04:03.468Z,37.72
2022-10-09T15:06:32.296Z,37.77
2022-10-09T15:09:04.609Z,37.85
2022-10-09T15:11:34.980Z,38.06
2022-10-09T15:14:03.883Z,38.30
2022-10-09T15:16:31.654Z,38.54
2022-10-09T15:18:59.492Z,38.78
2022-10-09T15:21:32.427Z,38.95
2022-10-09T15:24:01.557Z,39.08
2022-10-09T15:26:36.263Z,39.22
2022-10-09T15:29:06.423Z,39.26
2022-10-09T15:31:38.568Z,38.52
2022-10-09T15:34:07.714Z,36.88
2022-10-09T15:36:38.089Z,35.13
2022-10-09T15:39:08.791Z,33.38
2022-10-09T15:41:38.278Z,31.76
2022-10-09T15:44:17.574Z,30.25
2022-10-09T15:46:46.043Z,28.74
2022-10-09T15:49:14.022Z,27.38
2022-10-09T15:51:41.807Z,26.20
2022-10-09T15:54:11.315Z,25.18
2022-10-09T15:56:40.379Z,24.23
2022-10-09T15:59:11.676Z,23.42
2022-10-09T16:01:39.912Z,22.69
2022-10-09T16:04:08.625Z,22.08
2022-10-09T16:06:36.824Z,21.53
2022-10-09T16:09:04.711Z,20.99
2022-10-09T16:11:32.604Z,20.48
2022-10-09T16:14:00.959Z,19.92
2022-10-09T16:16:31.964Z,19.45
2022-10-09T16:19:02.599Z,19.05
2022-10-09T16:21:31.489Z,18.65
2022-10-09T16:23:59.764Z,18.26
2022-10-09T16:26:29.252Z,17.93
2022-10-09T16:28:59.023Z,17.64
2022-10-09T16:31:30.225Z,17.31
2022-10-09T16:33:58.501Z,17.02
2022-10-09T16:36:26.776Z,16.80
2022-10-09T16:38:56.080Z,16.58
2022-10-09T16:41:24.834Z,16.37
2022-10-09T16:43:54.797Z,16.18
2022-10-09T16:46:25.469Z,15.98
2022-10-09T16:48:54.848Z,15.79
2022-10-09T16:51:25.480Z,15.61
2022-10-09T16:53:56.032Z,15.44
2022-10-09T16:56:29.942Z,15.28
2022-10-09T16:58:59.512Z,15.12
2022-10-09T17:01:28.214Z,14.97
2022-10-09T17:04:00.043Z,14.82
2022-10-09T17:06:28.052Z,14.66
2022-10-09T17:08:58.490Z,14.55
2022-10-09T17:11:29.773Z,14.43
2022-10-09T17:13:58.516Z,14.32
2022-10-09T17:16:30.136Z,14.22
2022-10-09T17:18:59.917Z,14.12
2022-10-09T17:21:32.871Z,14.02
2022-10-09T17:24:04.722Z,13.92
2022-10-09T17:26:32.590Z,13.81
2022-10-09T17:29:01.140Z,13.70
2022-10-09T17:31:30.234Z,13.61
2022-10-09T17:34:02.673Z,13.53
2022-10-09T17:36:33.200Z,13.44
2022-10-09T17:39:01.634Z,13.34
2022-10-09T17:41:31.817Z,13.26
2022-10-09T17:44:00.146Z,13.18
2022-10-09T17:46:28.963Z,13.08
2022-10-09T17:48:58.407Z,13.00
2022-10-09T17:51:28.293Z,12.92
2022-10-09T17:54:01.728Z,12.86
2022-10-09T17:56:31.469Z,12.79
2022-10-09T17:59:01.443Z,12.72
2022-10-09T18:01:30.826Z,12.66
2022-10-09T18:03:58.857Z,12.57
2022-10-09T18:06:27.587Z,12.50
2022-10-09T18:08:57.203Z,12.44
2022-10-09T18:11:26.208Z,12.39
2022-10-09T18:13:54.545Z,12.33
2022-10-09T18:16:35.330Z,12.29
2022-10-09T18:19:12.601Z,12.22
2022-10-09T18:21:43.669Z,12.17
2022-10-09T18:24:12.639Z,12.12
2022-10-09T18:26:41.126Z,12.07
2022-10-09T18:29:08.912Z,12.01
2022-10-09T18:31:37.761Z,12.25
2022-10-09T18:34:05.823Z,13.60
2022-10-09T18:36:34.812Z,14.80
2022-10-09T18:39:06.418Z,15.34
2022-10-09T18:41:35.565Z,14.84
2022-10-09T18:44:04.499Z,14.25
2022-10-09T18:46:36.598Z,13.81
2022-10-09T18:49:09.468Z,13.47
2022-10-09T18:51:39.951Z,13.22
2022-10-09T18:54:08.140Z,13.01
2022-10-09T18:56:36.520Z,12.82
2022-10-09T18:59:07.519Z,12.65
2022-10-09T19:01:35.402Z,12.47
2022-10-09T19:04:03.451Z,12.32
2022-10-09T19:06:31.781Z,12.16
2022-10-09T19:09:00.934Z,12.02
2022-10-09T19:11:30.786Z,11.89
2022-10-09T19:14:01.979Z,11.77
2022-10-09T19:16:31.586Z,11.63
2022-10-09T19:18:59.664Z,11.52
2022-10-09T19:21:27.590Z,11.43
2022-10-09T19:23:55.760Z,11.36
2022-10-09T19:26:23.807Z,11.29
2022-10-09T19:28:51.953Z,11.22
2022-10-09T19:31:19.827Z,11.16
2022-10-09T19:33:47.897Z,11.11
2022-10-09T19:36:15.831Z,11.28
2022-10-09T19:38:44.003Z,12.54
2022-10-09T19:41:15.136Z,13.84
2022-10-09T19:43:44.531Z,14.48
2022-10-09T19:46:17.098Z,14.00
2022-10-09T19:48:45.937Z,13.39
2022-10-09T19:51:19.449Z,12.97
2022-10-09T19:53:48.057Z,12.66
2022-10-09T19:56:18.728Z,12.44
2022-10-09T19:58:48.217Z,12.26
2022-10-09T20:01:18.418Z,12.09
2022-10-09T20:03:47.169Z,11.94
2022-10-09T20:06:15.873Z,11.80
2022-10-09T20:08:45.212Z,11.69
2022-10-09T20:11:13.982Z,11.58
2022-10-09T20:13:42.847Z,11.49
2022-10-09T20:16:13.715Z,11.42
2022-10-09T20:18:42.525Z,11.33
2022-10-09T20:21:11.748Z,11.27
2022-10-09T20:23:43.156Z,11.46
2022-10-09T20:26:16.689Z,12.77
2022-10-09T20:28:44.936Z,14.06
2022-10-09T20:31:18.228Z,14.60
2022-10-09T20:33:47.290Z,14.08
2022-10-09T20:36:34.915Z,13.49
2022-10-09T20:39:08.206Z,13.00
2022-10-09T20:41:36.305Z,12.67
2022-10-09T20:44:04.784Z,12.41
2022-10-09T20:46:34.902Z,12.18
2022-10-09T20:49:09.421Z,11.98
2022-10-09T20:51:38.531Z,11.77
2022-10-09T20:54:07.507Z,11.59
2022-10-09T20:56:35.281Z,11.68
2022-10-09T20:59:03.250Z,12.88
2022-10-09T21:01:31.112Z,14.00
2022-10-09T21:03:59.321Z,14.50
2022-10-09T21:06:27.422Z,14.02
2022-10-09T21:08:56.905Z,13.38
2022-10-09T21:11:25.093Z,12.92
2022-10-09T21:13:52.838Z,12.61
2022-10-09T21:16:24.106Z,12.36
2022-10-09T21:18:56.740Z,12.15
2022-10-09T21:21:25.107Z,11.97
2022-10-09T21:23:54.082Z,11.81
2022-10-09T21:26:23.376Z,11.68
2022-10-09T21:28:55.463Z,11.56
2022-10-09T21:31:28.611Z,11.71
2022-10-09T21:33:58.331Z,13.02
2022-10-09T21:37:08.967Z,14.24
2022-10-09T21:39:36.358Z,14.64
2022-10-09T21:42:04.646Z,13.93
2022-10-09T21:44:32.735Z,13.31
2022-10-09T21:47:00.498Z,12.85
2022-10-09T21:49:28.626Z,12.47
2022-10-09T21:51:56.770Z,12.16
2022-10-09T21:54:26.770Z,11.90
2022-10-09T21:56:54.643Z,11.69
2022-10-09T21:59:22.406Z,11.48
2022-10-09T22:01:50.167Z,11.59
2022-10-09T22:04:17.923Z,12.82
2022-10-09T22:06:45.817Z,14.11
2022-10-09T22:09:13.590Z,14.72
2022-10-09T22:11:41.415Z,14.13
2022-10-09T22:14:09.133Z,13.41
2022-10-09T22:16:36.880Z,12.85
2022-10-09T22:19:04.709Z,12.40
2022-10-09T22:21:32.746Z,12.06
2022-10-09T22:24:01.125Z,11.80
2022-10-09T22:26:29.103Z,11.59
2022-10-09T22:28:57.585Z,11.41
2022-10-09T22:31:27.065Z,11.25
2022-10-09T22:34:00.669Z,11.38
2022-10-09T22:36:31.739Z,12.64
2022-10-09T22:39:02.165Z,13.90
2022-10-09T22:41:30.488Z,14.31
2022-10-09T22:43:59.171Z,13.63
2022-10-09T22:46:46.901Z,12.95
2022-10-09T22:49:17.263Z,12.39
2022-10-09T22:51:45.710Z,12.02
2022-10-09T22:54:13.621Z,11.73
2022-10-09T22:56:43.718Z,11.48
2022-10-09T22:59:14.487Z,11.24
2022-10-09T23:02:00.569Z,11.31
2022-10-09T23:04:29.264Z,12.69
2022-10-09T23:06:58.487Z,13.84
2022-10-09T23:09:30.411Z,14.22
2022-10-09T23:11:59.033Z,13.57
2022-10-09T23:14:27.640Z,12.90
2022-10-09T23:16:55.756Z,12.42
2022-10-09T23:19:23.858Z,12.06
2022-10-09T23:21:51.707Z,11.76
2022-10-09T23:24:19.695Z,11.51
2022-10-09T23:26:50.857Z,11.28
2022-10-09T23:29:21.291Z,11.34
2022-10-09T23:31:52.839Z,12.54
2022-10-09T23:34:20.689Z,13.80
2022-10-09T23:36:48.650Z,14.30
2022-10-09T23:39:17.519Z,13.69
2022-10-09T23:41:46.079Z,12.97
2022-10-09T23:44:15.317Z,12.43
2022-10-09T23:46:45.542Z,11.96
2022-10-09T23:49:13.319Z,11.63
2022-10-09T23:51:42.332Z,11.37
2022-10-09T23:54:11.743Z,11.17
2022-10-09T23:56:40.536Z,10.99
2022-10-09T23:59:08.610Z,10.81
